sensor_id;sensor_type;location;lat;lon;timestamp;P1;durP1;ratioP1;P2;durP2;ratioP2
70505;SDS011;58032;49.820;6.274;2022-08-01T00:01:26;3.17;;;0.90;;
70505;SDS011;58032;49.820;6.274;2022-08-01T00:03:53;2.85;;;0.80;;
70505;SDS011;58032;49.820;6.274;2022-08-01T00:06:20;2.70;;;1.10;;
70505;SDS011;58032;49.820;6.274;2022-08-01T00:08:47;2.60;;;0.65;;
70505;SDS011;58032;49.820;6.274;2022-08-01T00:11:14;4.53;;;1.10;;
70505;SDS011;58032;49.820;6.274;2022-08-01T00:13:41;2.60;;;0.82;;
70505;SDS011;58032;49.820;6.274;2022-08-01T00:16:08;2.40;;;0.80;;
70505;SDS011;58032;49.820;6.274;2022-08-01T00:18:35;3.00;;;0.70;;
70505;SDS011;58032;49.820;6.274;2022-08-01T00:21:02;3.08;;;0.98;;
70505;SDS011;58032;49.820;6.274;2022-08-01T00:23:30;3.07;;;0.80;;
70505;SDS011;58032;49.820;6.274;2022-08-01T00:25:57;3.20;;;0.77;;
70505;SDS011;58032;49.820;6.274;2022-08-01T00:28:24;4.30;;;0.80;;
70505;SDS011;58032;49.820;6.274;2022-08-01T00:30:51;2.72;;;0.70;;
70505;SDS011;58032;49.820;6.274;2022-08-01T00:33:18;2.40;;;0.70;;
70505;SDS011;58032;49.820;6.274;2022-08-01T00:35:45;5.33;;;0.80;;
70505;SDS011;58032;49.820;6.274;2022-08-01T00:38:12;3.85;;;0.70;;
70505;SDS011;58032;49.820;6.274;2022-08-01T00:40:39;3.28;;;0.55;;
70505;SDS011;58032;49.820;6.274;2022-08-01T00:43:06;2.08;;;0.75;;
70505;SDS011;58032;49.820;6.274;2022-08-01T00:45:33;2.88;;;0.70;;
70505;SDS011;58032;49.820;6.274;2022-08-01T00:48:00;2.23;;;0.63;;
70505;SDS011;58032;49.820;6.274;2022-08-01T00:50:27;3.10;;;0.75;;
70505;SDS011;58032;49.820;6.274;2022-08-01T00:52:55;3.25;;;0.88;;
70505;SDS011;58032;49.820;6.274;2022-08-01T00:55:22;2.63;;;0.73;;
70505;SDS011;58032;49.820;6.274;2022-08-01T00:57:49;2.67;;;0.65;;
70505;SDS011;58032;49.820;6.274;2022-08-01T01:00:17;3.50;;;0.63;;
70505;SDS011;58032;49.820;6.274;2022-08-01T01:02:45;4.63;;;0.77;;
70505;SDS011;58032;49.820;6.274;2022-08-01T01:05:12;2.90;;;0.90;;
70505;SDS011;58032;49.820;6.274;2022-08-01T01:10:13;2.90;;;0.70;;
70505;SDS011;58032;49.820;6.274;2022-08-01T01:12:47;3.00;;;0.50;;
70505;SDS011;58032;49.820;6.274;2022-08-01T01:15:31;4.50;;;0.60;;
70505;SDS011;58032;49.820;6.274;2022-08-01T01:18:04;2.53;;;0.63;;
70505;SDS011;58032;49.820;6.274;2022-08-01T01:20:38;3.42;;;0.60;;
70505;SDS011;58032;49.820;6.274;2022-08-01T01:31:47;6.00;;;0.63;;
70505;SDS011;58032;49.820;6.274;2022-08-01T01:34:18;2.10;;;0.50;;
70505;SDS011;58032;49.820;6.274;2022-08-01T01:36:47;2.28;;;0.60;;
70505;SDS011;58032;49.820;6.274;2022-08-01T01:39:16;2.17;;;0.50;;
70505;SDS011;58032;49.820;6.274;2022-08-01T01:41:45;2.53;;;0.60;;
70505;SDS011;58032;49.820;6.274;2022-08-01T01:44:14;2.85;;;0.65;;
70505;SDS011;58032;49.820;6.274;2022-08-01T01:46:43;2.72;;;0.90;;
70505;SDS011;58032;49.820;6.274;2022-08-01T01:49:10;2.35;;;0.52;;
70505;SDS011;58032;49.820;6.274;2022-08-01T01:51:38;2.43;;;0.80;;
70505;SDS011;58032;49.820;6.274;2022-08-01T01:54:08;3.42;;;0.65;;
70505;SDS011;58032;49.820;6.274;2022-08-01T01:56:36;3.13;;;0.90;;
70505;SDS011;58032;49.820;6.274;2022-08-01T01:59:19;2.00;;;0.60;;
70505;SDS011;58032;49.820;6.274;2022-08-01T02:01:48;3.83;;;0.80;;
70505;SDS011;58032;49.820;6.274;2022-08-01T02:04:18;3.67;;;0.60;;
70505;SDS011;58032;49.820;6.274;2022-08-01T02:06:47;2.10;;;0.47;;
70505;SDS011;58032;49.820;6.274;2022-08-01T02:09:19;1.83;;;0.40;;
70505;SDS011;58032;49.820;6.274;2022-08-01T02:11:47;4.75;;;0.50;;
70505;SDS011;58032;49.820;6.274;2022-08-01T02:14:16;2.13;;;0.50;;
70505;SDS011;58032;49.820;6.274;2022-08-01T02:16:47;2.70;;;0.47;;
70505;SDS011;58032;49.820;6.274;2022-08-01T02:19:18;2.03;;;0.50;;
70505;SDS011;58032;49.820;6.274;2022-08-01T02:24:20;1.92;;;0.35;;
70505;SDS011;58032;49.820;6.274;2022-08-01T02:27:00;1.67;;;0.38;;
70505;SDS011;58032;49.820;6.274;2022-08-01T02:29:34;2.93;;;0.33;;
70505;SDS011;58032;49.820;6.274;2022-08-01T02:32:19;2.15;;;0.30;;
70505;SDS011;58032;49.820;6.274;2022-08-01T02:34:51;1.95;;;0.20;;
70505;SDS011;58032;49.820;6.274;2022-08-01T02:37:22;1.85;;;0.40;;
70505;SDS011;58032;49.820;6.274;2022-08-01T02:39:53;2.58;;;0.30;;
70505;SDS011;58032;49.820;6.274;2022-08-01T02:42:22;1.50;;;0.30;;
70505;SDS011;58032;49.820;6.274;2022-08-01T02:44:51;1.60;;;0.35;;
70505;SDS011;58032;49.820;6.274;2022-08-01T02:47:20;3.45;;;0.30;;
70505;SDS011;58032;49.820;6.274;2022-08-01T02:49:51;2.28;;;0.40;;
70505;SDS011;58032;49.820;6.274;2022-08-01T02:52:20;1.73;;;0.32;;
70505;SDS011;58032;49.820;6.274;2022-08-01T02:54:50;2.10;;;0.50;;
70505;SDS011;58032;49.820;6.274;2022-08-01T02:57:20;1.70;;;0.40;;
70505;SDS011;58032;49.820;6.274;2022-08-01T02:59:49;2.60;;;0.30;;
70505;SDS011;58032;49.820;6.274;2022-08-01T03:02:17;1.83;;;0.30;;
70505;SDS011;58032;49.820;6.274;2022-08-01T03:04:45;2.05;;;0.40;;
70505;SDS011;58032;49.820;6.274;2022-08-01T03:07:16;1.90;;;0.43;;
70505;SDS011;58032;49.820;6.274;2022-08-01T03:09:45;3.13;;;0.40;;
70505;SDS011;58032;49.820;6.274;2022-08-01T03:12:15;1.67;;;0.40;;
70505;SDS011;58032;49.820;6.274;2022-08-01T03:14:46;3.92;;;0.68;;
70505;SDS011;58032;49.820;6.274;2022-08-01T03:17:16;2.00;;;0.50;;
70505;SDS011;58032;49.820;6.274;2022-08-01T03:19:46;2.70;;;0.40;;
70505;SDS011;58032;49.820;6.274;2022-08-01T03:22:16;2.40;;;0.65;;
70505;SDS011;58032;49.820;6.274;2022-08-01T03:24:44;2.55;;;0.60;;
70505;SDS011;58032;49.820;6.274;2022-08-01T03:27:16;2.10;;;0.60;;
70505;SDS011;58032;49.820;6.274;2022-08-01T03:29:48;2.50;;;0.50;;
70505;SDS011;58032;49.820;6.274;2022-08-01T03:32:17;2.13;;;0.50;;
70505;SDS011;58032;49.820;6.274;2022-08-01T03:34:45;3.63;;;0.60;;
70505;SDS011;58032;49.820;6.274;2022-08-01T03:37:26;2.80;;;0.70;;
70505;SDS011;58032;49.820;6.274;2022-08-01T03:39:58;4.13;;;1.77;;
70505;SDS011;58032;49.820;6.274;2022-08-01T03:42:32;3.53;;;0.68;;
70505;SDS011;58032;49.820;6.274;2022-08-01T03:45:10;2.03;;;0.50;;
70505;SDS011;58032;49.820;6.274;2022-08-01T03:47:42;1.65;;;0.40;;
70505;SDS011;58032;49.820;6.274;2022-08-01T03:50:11;3.08;;;0.40;;
70505;SDS011;58032;49.820;6.274;2022-08-01T03:52:41;4.10;;;0.40;;
70505;SDS011;58032;49.820;6.274;2022-08-01T03:55:11;1.83;;;0.40;;
70505;SDS011;58032;49.820;6.274;2022-08-01T03:57:43;2.28;;;0.38;;
70505;SDS011;58032;49.820;6.274;2022-08-01T04:00:12;2.67;;;0.40;;
70505;SDS011;58032;49.820;6.274;2022-08-01T04:02:39;2.00;;;0.38;;
70505;SDS011;58032;49.820;6.274;2022-08-01T04:05:08;1.80;;;0.35;;
70505;SDS011;58032;49.820;6.274;2022-08-01T04:07:35;2.13;;;0.50;;
70505;SDS011;58032;49.820;6.274;2022-08-01T04:10:03;3.60;;;0.80;;
70505;SDS011;58032;49.820;6.274;2022-08-01T04:12:31;2.97;;;0.60;;
70505;SDS011;58032;49.820;6.274;2022-08-01T04:14:59;2.28;;;0.60;;
70505;SDS011;58032;49.820;6.274;2022-08-01T04:17:26;1.80;;;0.40;;
70505;SDS011;58032;49.820;6.274;2022-08-01T04:19:53;2.00;;;0.30;;
70505;SDS011;58032;49.820;6.274;2022-08-01T04:22:20;2.13;;;0.50;;
70505;SDS011;58032;49.820;6.274;2022-08-01T04:24:48;2.40;;;0.50;;
70505;SDS011;58032;49.820;6.274;2022-08-01T04:27:23;2.40;;;0.60;;
70505;SDS011;58032;49.820;6.274;2022-08-01T04:30:02;2.42;;;0.38;;
70505;SDS011;58032;49.820;6.274;2022-08-01T04:32:31;4.03;;;0.50;;
70505;SDS011;58032;49.820;6.274;2022-08-01T04:35:02;4.07;;;0.60;;
70505;SDS011;58032;49.820;6.274;2022-08-01T04:37:33;2.25;;;0.57;;
70505;SDS011;58032;49.820;6.274;2022-08-01T04:40:04;3.42;;;0.50;;
70505;SDS011;58032;49.820;6.274;2022-08-01T04:42:33;2.65;;;0.50;;
70505;SDS011;58032;49.820;6.274;2022-08-01T04:45:01;2.38;;;0.47;;
70505;SDS011;58032;49.820;6.274;2022-08-01T04:47:28;3.10;;;0.50;;
70505;SDS011;58032;49.820;6.274;2022-08-01T04:49:56;2.40;;;0.60;;
70505;SDS011;58032;49.820;6.274;2022-08-01T04:52:32;1.90;;;0.40;;
70505;SDS011;58032;49.820;6.274;2022-08-01T04:55:04;3.25;;;0.60;;
70505;SDS011;58032;49.820;6.274;2022-08-01T04:57:34;1.90;;;0.47;;
70505;SDS011;58032;49.820;6.274;2022-08-01T05:00:04;3.03;;;0.77;;
70505;SDS011;58032;49.820;6.274;2022-08-01T05:02:33;2.35;;;0.50;;
70505;SDS011;58032;49.820;6.274;2022-08-01T05:05:00;2.42;;;0.50;;
70505;SDS011;58032;49.820;6.274;2022-08-01T05:07:27;2.55;;;0.70;;
70505;SDS011;58032;49.820;6.274;2022-08-01T05:09:54;2.55;;;0.60;;
70505;SDS011;58032;49.820;6.274;2022-08-01T05:12:21;1.90;;;0.43;;
70505;SDS011;58032;49.820;6.274;2022-08-01T05:14:48;2.25;;;0.45;;
70505;SDS011;58032;49.820;6.274;2022-08-01T05:17:15;2.40;;;0.45;;
70505;SDS011;58032;49.820;6.274;2022-08-01T05:19:43;2.97;;;0.60;;
70505;SDS011;58032;49.820;6.274;2022-08-01T05:22:10;2.10;;;0.40;;
70505;SDS011;58032;49.820;6.274;2022-08-01T05:24:38;4.20;;;0.60;;
70505;SDS011;58032;49.820;6.274;2022-08-01T05:27:06;1.98;;;0.50;;
70505;SDS011;58032;49.820;6.274;2022-08-01T05:29:34;2.33;;;0.73;;
70505;SDS011;58032;49.820;6.274;2022-08-01T05:32:04;2.10;;;0.63;;
70505;SDS011;58032;49.820;6.274;2022-08-01T05:34:31;4.05;;;0.60;;
70505;SDS011;58032;49.820;6.274;2022-08-01T05:36:58;2.20;;;0.70;;
70505;SDS011;58032;49.820;6.274;2022-08-01T05:39:25;3.08;;;0.80;;
70505;SDS011;58032;49.820;6.274;2022-08-01T05:41:52;4.07;;;0.90;;
70505;SDS011;58032;49.820;6.274;2022-08-01T05:44:19;2.78;;;0.80;;
70505;SDS011;58032;49.820;6.274;2022-08-01T05:46:46;3.28;;;0.73;;
70505;SDS011;58032;49.820;6.274;2022-08-01T05:49:14;2.93;;;0.80;;
70505;SDS011;58032;49.820;6.274;2022-08-01T05:51:41;2.58;;;0.63;;
70505;SDS011;58032;49.820;6.274;2022-08-01T05:54:08;2.95;;;1.05;;
70505;SDS011;58032;49.820;6.274;2022-08-01T05:56:35;2.17;;;0.60;;
70505;SDS011;58032;49.820;6.274;2022-08-01T05:59:02;2.30;;;0.82;;
70505;SDS011;58032;49.820;6.274;2022-08-01T06:01:29;3.13;;;0.80;;
70505;SDS011;58032;49.820;6.274;2022-08-01T06:03:56;2.55;;;0.90;;
70505;SDS011;58032;49.820;6.274;2022-08-01T06:06:23;2.55;;;0.90;;
70505;SDS011;58032;49.820;6.274;2022-08-01T06:08:51;2.55;;;1.15;;
70505;SDS011;58032;49.820;6.274;2022-08-01T06:11:18;3.50;;;0.90;;
70505;SDS011;58032;49.820;6.274;2022-08-01T06:13:45;4.43;;;1.10;;
70505;SDS011;58032;49.820;6.274;2022-08-01T06:16:12;2.80;;;0.90;;
70505;SDS011;58032;49.820;6.274;2022-08-01T06:18:39;2.45;;;1.00;;
70505;SDS011;58032;49.820;6.274;2022-08-01T06:21:06;4.38;;;0.85;;
70505;SDS011;58032;49.820;6.274;2022-08-01T06:23:33;2.88;;;0.80;;
70505;SDS011;58032;49.820;6.274;2022-08-01T06:26:00;2.50;;;0.97;;
70505;SDS011;58032;49.820;6.274;2022-08-01T06:28:27;3.15;;;1.02;;
70505;SDS011;58032;49.820;6.274;2022-08-01T06:30:54;3.17;;;1.10;;
70505;SDS011;58032;49.820;6.274;2022-08-01T06:33:22;2.33;;;0.90;;
70505;SDS011;58032;49.820;6.274;2022-08-01T06:35:49;3.22;;;1.10;;
70505;SDS011;58032;49.820;6.274;2022-08-01T06:38:15;3.53;;;1.27;;
70505;SDS011;58032;49.820;6.274;2022-08-01T06:40:43;2.83;;;1.25;;
70505;SDS011;58032;49.820;6.274;2022-08-01T06:43:10;3.72;;;0.95;;
70505;SDS011;58032;49.820;6.274;2022-08-01T06:45:38;2.85;;;1.20;;
